Time;durP1;ratioP1;P1;durP2;ratioP2;P2;SDS_P1;SDS_P2;PMS_P1;PMS_P2;Temp;Humidity;BMP_temperature;BMP_pressure;BME280_temperature;BME280_humidity;BME280_pressure;Samples;Min_cycle;Max_cycle;Signal;HPM_P1;HPM_P2
2021/06/01 00:02:12;;;;;;;;;;;;;;;25.17;25.53;94134.31;5015550;28;20300;-75
2021/06/01 00:04:39;;;;;;;;;;;;;;;25.22;25.80;94125.13;5014559;28;19922;-76
2021/06/01 00:07:06;;;;;;;;;;;;;;;25.26;25.65;94133.16;5014495;28;19920;-74
2021/06/01 00:09:33;;;;;;;;;;;;;;;25.18;25.91;94130.47;5015320;28;19913;-76
2021/06/01 00:12:00;;;;;;;;;;;;;;;24.57;26.33;94123.59;5016921;28;20228;-75
2021/06/01 00:14:27;;;;;;;;;;;;;;;24.64;26.40;94120.91;5019238;28;19917;-74
2021/06/01 00:16:55;;;;;;;;;;;;;;;24.19;27.00;94119.66;5018847;28;19913;-74
2021/06/01 00:19:22;;;;;;;;;;;;;;;24.75;25.83;94121.72;5019126;28;19917;-75
2021/06/01 00:21:49;;;;;;;;;;;;;;;24.92;26.19;94115.59;5019247;28;20300;-74
2021/06/01 00:24:16;;;;;;;;;;;;;;;24.58;26.48;94114.44;5019020;28;19917;-75
2021/06/01 00:26:43;;;;;;;;;;;;;;;24.53;26.56;94112.16;5018784;28;19913;-77
2021/06/01 00:29:10;;;;;;;;;;;;;;;24.28;27.17;94112.09;5019061;28;19920;-77
2021/06/01 00:31:37;;;;;;;;;;;;;;;25.29;25.71;94103.72;5018680;28;19921;-75
2021/06/01 00:34:04;;;;;;;;;;;;;;;25.24;25.90;94111.38;5018239;28;19917;-76
2021/06/01 00:36:32;;;;;;;;;;;;;;;24.49;26.63;94101.47;5018083;28;19920;-75
2021/06/01 00:38:59;;;;;;;;;;;;;;;25.04;25.92;94095.75;5018749;28;19918;-76
2021/06/01 00:41:26;;;;;;;;;;;;;;;25.14;25.89;94097.63;5018539;28;19917;-75
2021/06/01 00:43:52;;;;;;;;;;;;;;;24.40;26.88;94101.06;5018525;28;19917;-74
2021/06/01 00:46:19;;;;;;;;;;;;;;;24.58;26.68;94091.16;5018113;28;19913;-76
2021/06/01 00:48:46;;;;;;;;;;;;;;;24.19;27.11;94106.31;5018562;28;19920;-74
2021/06/01 00:51:13;;;;;;;;;;;;;;;24.17;26.99;94100.59;5018467;28;19913;-75
2021/06/01 00:53:40;;;;;;;;;;;;;;;24.78;25.82;94093.44;5017949;28;19920;-76
2021/06/01 00:56:07;;;;;;;;;;;;;;;24.05;27.03;94095.63;5018082;28;20205;-75
2021/06/01 00:58:34;;;;;;;;;;;;;;;23.74;27.60;94097.06;5000696;28;19920;-75
2021/06/01 01:03:35;;;;;;;;;;;;;;;24.14;26.82;94091.44;5017623;28;20332;-76
2021/06/01 01:06:08;;;;;;;;;;;;;;;25.08;25.56;94093.84;5017714;28;20209;-76
2021/06/01 01:08:48;;;;;;;;;;;;;;;24.51;26.77;94101.84;5017813;28;19917;-77
2021/06/01 01:11:19;;;;;;;;;;;;;;;23.92;27.27;94100.53;5017085;28;19925;-77
2021/06/01 01:13:54;;;;;;;;;;;;;;;24.57;26.60;94097.63;5017613;28;19917;-76
2021/06/01 01:16:23;;;;;;;;;;;;;;;24.61;26.39;94092.28;5017501;28;19913;-77
2021/06/01 01:18:58;;;;;;;;;;;;;;;24.45;27.02;94095.31;5016922;28;20212;-74
2021/06/01 01:21:29;;;;;;;;;;;;;;;23.77;27.63;94099.72;5016717;28;19921;-77
2021/06/01 01:24:08;;;;;;;;;;;;;;;24.38;27.00;94098.00;5016008;28;19920;-77
2021/06/01 01:26:49;;;;;;;;;;;;;;;24.18;27.40;94097.53;5016237;28;19922;-76
2021/06/01 01:29:18;;;;;;;;;;;;;;;23.57;28.42;94098.50;5017885;28;19917;-75
2021/06/01 01:31:46;;;;;;;;;;;;;;;24.20;27.85;94089.16;5016379;28;19996;-75
2021/06/01 01:34:14;;;;;;;;;;;;;;;23.70;28.73;94099.72;5016717;28;19941;-76
2021/06/01 01:36:41;;;;;;;;;;;;;;;24.20;28.35;94095.28;5017112;28;19920;-69
2021/06/01 01:39:09;;;;;;;;;;;;;;;24.34;28.24;94078.53;5016496;28;20244;-77
2021/06/01 01:41:38;;;;;;;;;;;;;;;24.78;26.99;94088.09;5016373;28;19913;-77
2021/06/01 01:44:07;;;;;;;;;;;;;;;24.07;28.92;94091.44;5017218;28;19913;-76
2021/06/01 01:48:58;;;;;;;;;;;;;;;24.33;28.04;94081.59;5016919;28;19917;-76
2021/06/01 01:49:24;;;;;;;;;;;;;;;24.31;28.06;94083.88;5011934;28;19925;-74
2021/06/01 01:51:52;;;;;;;;;;;;;;;24.56;27.47;94080.09;5017214;28;19921;-73
2021/06/01 01:54:24;;;;;;;;;;;;;;;24.82;27.09;94080.84;5016155;28;19918;-75
2021/06/01 01:56:53;;;;;;;;;;;;;;;24.28;28.07;94088.06;5016685;28;19920;-74
2021/06/01 01:59:23;;;;;;;;;;;;;;;23.52;29.20;94085.50;5016148;28;20301;-75
2021/06/01 02:01:51;;;;;;;;;;;;;;;24.25;28.04;94075.44;5016120;28;19913;-74
2021/06/01 02:04:19;;;;;;;;;;;;;;;23.64;28.60;94077.94;5016175;28;19924;-77
2021/06/01 02:06:46;;;;;;;;;;;;;;;23.45;29.07;94080.91;5015327;28;19913;-76
2021/06/01 02:09:13;;;;;;;;;;;;;;;23.95;27.97;94073.88;5016937;28;19944;-76
2021/06/01 02:11:40;;;;;;;;;;;;;;;24.42;27.43;94074.72;5016752;28;19920;-75
2021/06/01 02:14:07;;;;;;;;;;;;;;;23.05;29.38;94076.47;5016686;28;19917;-75
2021/06/01 02:16:36;;;;;;;;;;;;;;;23.91;27.98;94077.63;5016318;28;19913;-75
2021/06/01 02:19:06;;;;;;;;;;;;;;;24.63;27.29;94067.84;5016695;28;19914;-75
2021/06/01 02:24:20;;;;;;;;;;;;;;;23.87;28.15;94077.63;5015749;28;19940;-75
2021/06/01 02:27:01;;;;;;;;;;;;;;;24.83;26.58;94077.03;5015788;28;19929;-75
2021/06/01 02:29:31;;;;;;;;;;;;;;;23.95;27.83;94073.88;5016528;28;20315;-74
2021/06/01 02:31:58;;;;;;;;;;;;;;;24.25;27.50;94075.44;5016507;28;19922;-76
2021/06/01 02:34:25;;;;;;;;;;;;;;;24.47;27.17;94074.38;5014927;28;19929;-75
2021/06/01 02:36:52;;;;;;;;;;;;;;;23.94;27.94;94077.69;5016193;28;19917;-75
2021/06/01 02:39:20;;;;;;;;;;;;;;;23.61;28.69;94076.03;5015595;28;19929;-66
2021/06/01 02:41:47;;;;;;;;;;;;;;;24.58;27.33;94071.69;5015323;28;19925;-75
2021/06/01 02:44:14;;;;;;;;;;;;;;;23.42;29.35;94070.97;5016383;28;19918;-74
2021/06/01 02:46:41;;;;;;;;;;;;;;;24.02;28.46;94080.34;5015018;28;19924;-76
2021/06/01 02:49:08;;;;;;;;;;;;;;;24.18;28.43;94078.84;5015693;28;19913;-74
2021/06/01 02:51:36;;;;;;;;;;;;;;;23.45;29.73;94080.13;5011705;28;19917;-75
2021/06/01 02:54:04;;;;;;;;;;;;;;;23.91;29.00;94078.41;4996652;28;20304;-75
2021/06/01 02:56:31;;;;;;;;;;;;;;;23.27;30.03;94077.38;5010457;28;19913;-75
2021/06/01 02:59:00;;;;;;;;;;;;;;;23.45;29.95;94082.78;5016070;28;19924;-74
2021/06/01 03:01:29;;;;;;;;;;;;;;;23.59;29.74;94088.97;5014049;28;19913;-74
2021/06/01 03:03:56;;;;;;;;;;;;;;;23.14;31.01;94089.47;5015541;28;19928;-74
2021/06/01 03:06:24;;;;;;;;;;;;;;;23.20;31.14;94094.09;5016005;28;19918;-75
2021/06/01 03:08:51;;;;;;;;;;;;;;;23.69;30.12;94082.16;5016405;28;19917;-74
2021/06/01 03:11:19;;;;;;;;;;;;;;;23.95;29.74;94089.88;5016067;28;19921;-75
2021/06/01 03:13:46;;;;;;;;;;;;;;;23.96;29.86;94086.06;5015580;28;19921;-74
2021/06/01 03:16:13;;;;;;;;;;;;;;;22.99;31.22;94083.28;5016118;28;19913;-74
2021/06/01 03:18:41;;;;;;;;;;;;;;;23.08;31.71;94076.50;5015695;28;19913;-74
2021/06/01 03:21:08;;;;;;;;;;;;;;;23.04;32.08;94080.28;5015745;28;20230;-74
2021/06/01 03:23:35;;;;;;;;;;;;;;;23.13;31.75;94074.59;5015631;28;19913;-75
2021/06/01 03:26:03;;;;;;;;;;;;;;;23.15;31.59;94070.44;5015915;28;19913;-75
2021/06/01 03:28:30;;;;;;;;;;;;;;;23.96;30.49;94079.97;5015564;28;19914;-74
2021/06/01 03:30:57;;;;;;;;;;;;;;;22.62;32.55;94091.34;5015449;28;19913;-71
2021/06/01 03:33:24;;;;;;;;;;;;;;;22.76;32.65;94080.81;5015397;28;19917;-70
2021/06/01 03:35:51;;;;;;;;;;;;;;;22.76;32.28;94086.91;4995859;28;19926;-71
2021/06/01 03:38:18;;;;;;;;;;;;;;;22.68;32.36;94077.34;5007640;28;19913;-70
2021/06/01 03:40:45;;;;;;;;;;;;;;;22.98;31.18;94081.75;5014242;28;19917;-70
2021/06/01 03:43:12;;;;;;;;;;;;;;;22.52;32.08;94086.72;5015421;28;20232;-70
2021/06/01 03:45:39;;;;;;;;;;;;;;;22.32;32.88;94083.50;5013966;28;19929;-70
2021/06/01 03:48:06;;;;;;;;;;;;;;;22.29;33.02;94085.00;5015138;28;19920;-70
2021/06/01 03:50:34;;;;;;;;;;;;;;;22.42;32.64;94082.84;5015345;28;20331;-72
2021/06/01 03:53:01;;;;;;;;;;;;;;;23.30;31.71;94082.72;5014878;28;19918;-72
2021/06/01 03:55:28;;;;;;;;;;;;;;;23.31;30.19;94076.25;5011461;28;19914;-72
2021/06/01 03:57:55;;;;;;;;;;;;;;;22.97;31.28;94081.00;5004064;28;19920;-72
2021/06/01 04:00:24;;;;;;;;;;;;;;;22.25;32.77;94083.44;5015230;28;19924;-71
2021/06/01 04:02:50;;;;;;;;;;;;;;;22.63;32.27;94077.66;5013726;28;20229;-70
2021/06/01 04:05:17;;;;;;;;;;;;;;;22.55;33.08;94081.41;5013496;28;19929;-71
2021/06/01 04:07:45;;;;;;;;;;;;;;;22.69;31.94;94076.22;5014582;28;20422;-72
2021/06/01 04:10:13;;;;;;;;;;;;;;;22.39;32.58;94075.59;5014083;28;20722;-71
2021/06/01 04:12:40;;;;;;;;;;;;;;;23.13;31.53;94072.69;5014773;28;20311;-72
2021/06/01 04:15:08;;;;;;;;;;;;;;;22.73;32.35;94071.66;5014941;28;19993;-72
2021/06/01 04:17:35;;;;;;;;;;;;;;;25.52;28.75;94065.84;5014690;28;19913;-73
2021/06/01 04:20:02;;;;;;;;;;;;;;;28.57;24.19;94069.59;5004967;28;19914;-67
2021/06/01 04:22:29;;;;;;;;;;;;;;;30.55;21.83;94069.72;5000943;28;19917;-49
2021/06/01 04:24:56;;;;;;;;;;;;;;;31.82;19.96;94073.09;5002278;28;19941;-52
2021/06/01 04:27:23;;;;;;;;;;;;;;;32.78;19.04;94072.16;4995179;28;19925;-62
2021/06/01 04:29:50;;;;;;;;;;;;;;;33.53;18.12;94070.47;4995999;28;19920;-52
2021/06/01 04:32:17;;;;;;;;;;;;;;;34.06;17.76;94072.50;5014326;28;19914;-45
2021/06/01 04:34:44;;;;;;;;;;;;;;;34.59;17.04;94070.50;5003112;28;19921;-67
2021/06/01 04:37:11;;;;;;;;;;;;;;;34.78;17.28;94063.16;4995096;28;19920;-66
2021/06/01 04:39:38;;;;;;;;;;;;;;;35.23;16.48;94057.06;4994940;28;19918;-60
2021/06/01 04:42:05;;;;;;;;;;;;;;;35.47;16.94;94073.56;5003628;28;19914;-58
2021/06/01 04:44:32;;;;;;;;;;;;;;;32.31;18.84;94064.75;4997236;28;20228;-75
2021/06/01 04:47:00;;;;;;;;;;;;;;;30.49;21.08;94063.31;4994386;28;19922;-75
2021/06/01 04:49:27;;;;;;;;;;;;;;;27.01;25.47;94066.84;5004824;28;19921;-75
2021/06/01 04:51:54;;;;;;;;;;;;;;;26.71;26.49;94064.78;5003001;28;19914;-75
2021/06/01 04:54:21;;;;;;;;;;;;;;;26.09;27.04;94068.28;4998678;28;19922;-75
2021/06/01 04:56:48;;;;;;;;;;;;;;;25.63;27.36;94063.88;5014851;28;19925;-75
2021/06/01 04:59:15;;;;;;;;;;;;;;;25.29;27.53;94068.19;5013293;28;19924;-73
2021/06/01 05:01:42;;;;;;;;;;;;;;;25.63;26.86;94061.19;5003404;28;19914;-75
2021/06/01 05:04:09;;;;;;;;;;;;;;;24.82;28.17;94065.56;5017304;28;20244;-74
2021/06/01 05:06:36;;;;;;;;;;;;;;;24.96;27.96;94074.69;5006625;28;19914;-75
2021/06/01 05:09:04;;;;;;;;;;;;;;;25.33;27.26;94076.97;4998499;28;19913;-75
2021/06/01 05:11:32;;;;;;;;;;;;;;;24.79;28.60;94062.91;5001464;28;20263;-74
2021/06/01 05:13:59;;;;;;;;;;;;;;;24.13;29.19;94073.13;5017951;28;19929;-74
2021/06/01 05:16:26;;;;;;;;;;;;;;;24.02;29.29;94067.00;5001413;28;20224;-73
2021/06/01 05:18:53;;;;;;;;;;;;;;;23.94;30.28;94071.53;4997383;28;20328;-75
2021/06/01 05:21:20;;;;;;;;;;;;;;;24.51;28.92;94066.34;4999533;28;20313;-73
2021/06/01 05:23:47;;;;;;;;;;;;;;;24.20;30.06;94078.47;5017603;28;19917;-74
2021/06/01 05:26:14;;;;;;;;;;;;;;;24.17;29.59;94073.88;5016511;28;20313;-74
2021/06/01 05:28:41;;;;;;;;;;;;;;;24.02;29.83;94080.34;5017786;28;20300;-73
2021/06/01 05:33:50;;;;;;;;;;;;;;;24.25;29.46;94076.22;5016819;28;20301;-73
2021/06/01 05:36:17;;;;;;;;;;;;;;;23.88;29.94;94084.50;5018221;28;19929;-73
2021/06/01 05:38:43;;;;;;;;;;;;;;;24.62;29.03;94077.03;5017783;28;19917;-73
2021/06/01 05:41:11;;;;;;;;;;;;;;;24.41;29.05;94075.88;5017982;28;19917;-73
2021/06/01 05:43:38;;;;;;;;;;;;;;;24.46;29.28;94069.38;5017135;28;20299;-74
2021/06/01 05:46:06;;;;;;;;;;;;;;;24.11;29.58;94075.41;5000186;28;19918;-73
2021/06/01 05:48:33;;;;;;;;;;;;;;;23.88;29.76;94078.41;5016543;28;19921;-74
2021/06/01 05:51:00;;;;;;;;;;;;;;;23.99;29.78;94077.31;5017617;28;20284;-74
2021/06/01 05:53:28;;;;;;;;;;;;;;;23.77;30.32;94083.72;5016973;28;19985;-74
2021/06/01 05:55:55;;;;;;;;;;;;;;;24.10;29.90;94079.22;5017102;28;19920;-75
2021/06/01 05:58:22;;;;;;;;;;;;;;;23.96;30.27;94083.41;5016614;28;19913;-73
2021/06/01 06:00:49;;;;;;;;;;;;;;;23.74;30.60;94076.47;5016321;28;20248;-75
2021/06/01 06:03:17;;;;;;;;;;;;;;;24.26;29.58;94079.66;5017061;28;19921;-74
2021/06/01 06:05:44;;;;;;;;;;;;;;;24.17;29.39;94073.88;5016642;28;19924;-74
2021/06/01 06:08:13;;;;;;;;;;;;;;;23.55;30.90;94077.50;5017312;28;19913;-74
2021/06/01 06:10:40;;;;;;;;;;;;;;;24.24;30.16;94080.03;5017053;28;19925;-74
2021/06/01 06:13:07;;;;;;;;;;;;;;;23.91;30.14;94073.06;5016629;28;19917;-74
2021/06/01 06:15:34;;;;;;;;;;;;;;;23.87;30.11;94079.53;5017159;28;20324;-75
2021/06/01 06:18:04;;;;;;;;;;;;;;;24.13;30.37;94076.56;5017091;28;19920;-74
2021/06/01 06:20:32;;;;;;;;;;;;;;;24.49;29.91;94073.97;5016764;28;20361;-69
2021/06/01 06:22:59;;;;;;;;;;;;;;;24.97;28.74;94077.00;5016297;28;19928;-66
2021/06/01 06:25:26;;;;;;;;;;;;;;;24.48;29.36;94078.56;5016711;28;19917;-62
2021/06/01 06:27:54;;;;;;;;;;;;;;;24.74;29.82;94079.31;5016698;28;19913;-59
2021/06/01 06:30:22;;;;;;;;;;;;;;;24.84;29.10;94078.56;5016430;28;19928;-66
2021/06/01 06:32:49;;;;;;;;;;;;;;;24.50;29.48;94078.94;5016247;28;20232;-64
2021/06/01 06:35:16;;;;;;;;;;;;;;;25.21;28.33;94078.88;5014583;28;19925;-60
2021/06/01 06:37:43;;;;;;;;;;;;;;;25.44;28.02;94075.00;5016139;28;19913;-65
2021/06/01 06:40:11;;;;;;;;;;;;;;;25.34;27.89;94081.16;5014930;28;19917;-67
2021/06/01 06:42:38;;;;;;;;;;;;;;;24.93;28.45;94076.25;5015784;28;19920;-67
2021/06/01 06:45:06;;;;;;;;;;;;;;;24.73;28.86;94083.16;5016039;28;19914;-64
2021/06/01 06:50:09;;;;;;;;;;;;;;;23.80;29.98;94088.28;5014808;28;19913;-63
2021/06/01 06:52:36;;;;;;;;;;;;;;;24.52;28.69;94076.66;5015676;28;19917;-61
2021/06/01 06:55:04;;;;;;;;;;;;;;;23.95;30.02;94081.13;5015989;28;19993;-67
2021/06/01 06:57:31;;;;;;;;;;;;;;;24.15;29.29;94081.50;5014761;28;19917;-67
2021/06/01 06:59:58;;;;;;;;;;;;;;;23.90;29.68;94082.22;5013830;28;19913;-68
2021/06/01 07:02:25;;;;;;;;;;;;;;;24.24;29.16;94089.94;5014171;28;19929;-67
2021/06/01 07:04:52;;;;;;;;;;;;;;;23.91;30.14;94078.41;5015204;28;19928;-68
2021/06/01 07:07:19;;;;;;;;;;;;;;;24.11;29.87;94080.75;5015810;28;19917;-60
2021/06/01 07:09:47;;;;;;;;;;;;;;;24.02;30.15;94089.13;5015598;28;19918;-62
2021/06/01 07:12:14;;;;;;;;;;;;;;;24.39;29.46;94080.81;5012530;28;19928;-62
2021/06/01 07:14:46;;;;;;;;;;;;;;;23.73;30.47;94087.50;5011107;28;20232;-67
2021/06/01 07:17:15;;;;;;;;;;;;;;;23.78;30.54;94090.56;4996079;28;19913;-63
2021/06/01 07:19:43;;;;;;;;;;;;;;;24.84;29.21;94094.59;4995784;28;19918;-60
2021/06/01 07:22:10;;;;;;;;;;;;;;;24.50;29.38;94096.88;5010051;28;19917;-68
2021/06/01 07:24:37;;;;;;;;;;;;;;;24.60;29.03;94096.88;5015442;28;19917;-64
2021/06/01 07:27:04;;;;;;;;;;;;;;;24.68;28.88;94094.19;5015622;28;20232;-67
2021/06/01 07:29:31;;;;;;;;;;;;;;;24.44;28.72;94091.13;5014223;28;20244;-67
2021/06/01 07:31:58;;;;;;;;;;;;;;;24.24;29.21;94096.06;5014961;28;19936;-59
2021/06/01 07:34:25;;;;;;;;;;;;;;;24.45;29.13;94095.31;5014407;28;20301;-64
2021/06/01 07:36:52;;;;;;;;;;;;;;;24.79;28.43;94097.66;5000250;28;19918;-66
2021/06/01 07:39:19;;;;;;;;;;;;;;;24.33;29.70;94102.94;4996125;28;19914;-64
2021/06/01 07:41:46;;;;;;;;;;;;;;;25.06;28.63;94098.03;5000375;28;19918;-66
2021/06/01 07:44:13;;;;;;;;;;;;;;;24.77;28.62;94099.94;5015451;28;19921;-63
2021/06/01 07:46:40;;;;;;;;;;;;;;;24.44;29.40;94099.13;5015529;28;19913;-64
2021/06/01 07:49:10;;;;;;;;;;;;;;;24.60;28.83;94091.53;5015585;28;19948;-63
2021/06/01 07:51:37;;;;;;;;;;;;;;;24.76;28.66;94093.06;5015106;28;19913;-64
2021/06/01 07:54:04;;;;;;;;;;;;;;;25.58;27.30;94099.06;5015031;28;20300;-65
2021/06/01 07:56:32;;;;;;;;;;;;;;;24.93;28.69;94102.97;5015371;28;19917;-67
2021/06/01 07:58:59;;;;;;;;;;;;;;;24.44;29.22;94099.13;5014428;28;19944;-64
2021/06/01 08:01:26;;;;;;;;;;;;;;;25.31;28.28;94096.09;5014148;28;20231;-66
2021/06/01 08:03:53;;;;;;;;;;;;;;;24.60;29.10;94106.81;5014389;28;19925;-65
2021/06/01 08:06:20;;;;;;;;;;;;;;;24.74;28.49;94106.06;5015365;28;20287;-61
2021/06/01 08:08:47;;;;;;;;;;;;;;;24.38;28.91;94099.91;5015363;28;19929;-67
2021/06/01 08:11:14;;;;;;;;;;;;;;;24.65;28.32;94102.97;5015009;28;20205;-65
2021/06/01 08:13:41;;;;;;;;;;;;;;;24.69;28.75;94101.06;5014619;28;19928;-61
2021/06/01 08:16:08;;;;;;;;;;;;;;;24.60;29.21;94101.47;5015318;28;19920;-67
2021/06/01 08:18:42;;;;;;;;;;;;;;;24.90;29.49;94106.41;5015308;28;19913;-67
2021/06/01 08:21:16;;;;;;;;;;;;;;;24.28;30.61;94102.19;5014538;28;19913;-64
2021/06/01 08:23:43;;;;;;;;;;;;;;;24.94;29.65;94114.44;5013536;28;19917;-64
2021/06/01 08:26:10;;;;;;;;;;;;;;;24.89;29.98;94102.97;5015268;28;19936;-63
2021/06/01 08:28:37;;;;;;;;;;;;;;;25.74;28.49;94107.44;5015177;28;19919;-64
2021/06/01 08:31:04;;;;;;;;;;;;;;;24.77;30.40;94106.06;5014952;28;20300;-64
2021/06/01 08:33:31;;;;;;;;;;;;;;;25.13;29.92;94106.03;5016963;28;19921;-61
2021/06/01 08:35:58;;;;;;;;;;;;;;;24.51;30.44;94107.19;5017987;28;19922;-64
2021/06/01 08:38:25;;;;;;;;;;;;;;;24.68;30.93;94108.31;5018570;28;20263;-61
2021/06/01 08:40:52;;;;;;;;;;;;;;;25.49;28.58;94117.44;5018001;28;19913;-64
2021/06/01 08:43:23;;;;;;;;;;;;;;;25.23;28.90;94107.94;5017713;28;19917;-64
2021/06/01 08:45:52;;;;;;;;;;;;;;;24.41;30.41;94115.16;5013881;28;19917;-61
2021/06/01 08:48:19;;;;;;;;;;;;;;;25.51;28.72;94102.53;5014485;28;19913;-66
2021/06/01 08:50:47;;;;;;;;;;;;;;;25.02;30.45;94111.41;5018432;28;20240;-61
2021/06/01 08:53:15;;;;;;;;;;;;;;;25.33;29.54;94098.38;5017751;28;20350;-68
2021/06/01 08:55:42;;;;;;;;;;;;;;;25.65;29.33;94104.38;5016940;28;19932;-61
2021/06/01 08:58:13;;;;;;;;;;;;;;;25.74;29.25;94101.31;5001943;28;19917;-66
2021/06/01 09:00:40;;;;;;;;;;;;;;;25.37;29.67;94099.88;5018194;28;19917;-61
2021/06/01 09:03:14;;;;;;;;;;;;;;;26.32;27.33;94108.69;5017780;28;19920;-67
2021/06/01 09:06:01;;;;;;;;;;;;;;;25.89;27.60;94102.03;5016536;28;19921;-67
2021/06/01 09:08:46;;;;;;;;;;;;;;;26.09;26.88;94103.84;5017855;28;19918;-68
2021/06/01 09:11:31;;;;;;;;;;;;;;;25.54;27.87;94109.03;5018037;28;19913;-65
2021/06/01 09:22:33;;;;;;;;;;;;;;;25.18;27.87;94111.75;5017351;28;19920;-65
2021/06/01 09:25:00;;;;;;;;;;;;;;;24.47;28.68;94119.78;5011688;28;20256;-68
2021/06/01 09:27:30;;;;;;;;;;;;;;;25.00;28.04;94113.72;4998045;28;19918;-68
2021/06/01 09:29:57;;;;;;;;;;;;;;;25.28;27.37;94112.16;5014906;28;19913;-64
2021/06/01 09:32:24;;;;;;;;;;;;;;;24.63;28.42;94105.28;5000212;28;19914;-66
2021/06/01 09:34:52;;;;;;;;;;;;;;;25.06;28.29;94101.47;5016678;28;19929;-68
2021/06/01 09:37:20;;;;;;;;;;;;;;;26.29;26.63;94101.44;5013576;28;19918;-67
2021/06/01 09:40:04;;;;;;;;;;;;;;;25.28;27.97;94096.09;5013033;28;19924;-67
2021/06/01 09:42:32;;;;;;;;;;;;;;;25.62;27.16;94097.13;5015541;28;19918;-68
2021/06/01 09:45:17;;;;;;;;;;;;;;;25.23;27.73;94096.47;5016818;28;19913;-68
2021/06/01 09:47:44;;;;;;;;;;;;;;;25.61;26.66;94094.84;5017182;28;19913;-68
2021/06/01 09:52:59;;;;;;;;;;;;;;;25.27;27.43;94099.91;5017118;28;19917;-67
2021/06/01 09:55:34;;;;;;;;;;;;;;;25.41;27.16;94110.56;5015995;28;19922;-68
2021/06/01 09:58:01;;;;;;;;;;;;;;;25.07;27.90;94097.66;5016969;28;19921;-69
2021/06/01 10:00:29;;;;;;;;;;;;;;;25.63;26.36;94097.91;5017091;28;19913;-68
2021/06/01 10:03:03;;;;;;;;;;;;;;;25.46;26.48;94102.16;5015082;28;19917;-67
2021/06/01 10:05:34;;;;;;;;;;;;;;;25.52;26.51;94095.28;5012230;28;20328;-67
2021/06/01 10:08:25;;;;;;;;;;;;;;;25.68;26.27;94103.63;5016714;28;20236;-65
2021/06/01 10:11:00;;;;;;;;;;;;;;;24.99;27.46;94090.78;5016528;28;19913;-64
2021/06/01 10:13:28;;;;;;;;;;;;;;;25.63;27.08;94090.63;5016640;28;19924;-63
2021/06/01 10:15:59;;;;;;;;;;;;;;;26.19;26.25;94091.53;5014828;28;19913;-65
2021/06/01 10:18:30;;;;;;;;;;;;;;;25.85;27.22;94088.66;5000152;28;20331;-67
2021/06/01 10:21:00;;;;;;;;;;;;;;;26.15;26.35;94085.44;5016726;28;19925;-68
2021/06/01 10:23:33;;;;;;;;;;;;;;;26.12;26.09;94094.28;4999712;28;19925;-65
2021/06/01 10:26:00;;;;;;;;;;;;;;;26.06;25.73;94091.25;5008227;28;19913;-62
2021/06/01 10:28:36;;;;;;;;;;;;;;;26.09;25.75;94078.97;5016378;28;19939;-66
2021/06/01 10:31:04;;;;;;;;;;;;;;;25.76;26.19;94082.94;5014723;28;19921;-69
2021/06/01 10:34:01;;;;;;;;;;;;;;;25.83;26.07;94090.22;4996530;28;20328;-64
2021/06/01 10:50:37;;;;;;;;;;;;;;;25.69;27.10;94110.50;5013942;28;19917;-68
2021/06/01 10:53:22;;;;;;;;;;;;;;;25.20;28.30;94100.69;4996457;28;19917;-66
2021/06/01 10:58:19;;;;;;;;;;;;;;;25.38;28.82;94106.00;5015903;28;20351;-65
2021/06/01 11:03:14;;;;;;;;;;;;;;;25.50;29.49;94095.66;5015609;28;19917;-67
2021/06/01 11:05:57;;;;;;;;;;;;;;;24.82;29.89;94092.28;5014443;28;19941;-67
2021/06/01 11:08:37;;;;;;;;;;;;;;;25.89;28.05;94096.69;5015380;28;19913;-67
2021/06/01 11:11:22;;;;;;;;;;;;;;;26.39;27.15;94094.53;5015394;28;19925;-66
2021/06/01 11:13:50;;;;;;;;;;;;;;;26.28;27.15;94085.75;5015234;28;20413;-67
2021/06/01 11:16:17;;;;;;;;;;;;;;;26.70;26.43;94100.81;5015709;28;19944;-68
2021/06/01 11:18:53;;;;;;;;;;;;;;;26.26;28.08;94104.88;5015537;28;19944;-68
2021/06/01 11:21:27;;;;;;;;;;;;;;;26.66;26.67;94092.03;5014712;28;20240;-66
2021/06/01 11:24:31;;;;;;;;;;;;;;;25.78;28.22;94102.84;5015277;28;19918;-68
2021/06/01 11:35:13;;;;;;;;;;;;;;;26.34;25.81;94114.47;5014737;28;20228;-70
2021/06/01 11:43:11;;;;;;;;;;;;;;;26.06;26.09;94107.31;5015240;28;19913;-69
2021/06/01 11:51:18;;;;;;;;;;;;;;;25.86;26.37;94102.81;5015444;28;20232;-68
2021/06/01 11:53:49;;;;;;;;;;;;;;;25.95;26.01;94100.47;5014149;28;20213;-68
2021/06/01 11:56:19;;;;;;;;;;;;;;;26.08;25.76;94110.38;5015320;28;19921;-64
2021/06/01 12:20:45;;;;;;;;;;;;;;;25.59;25.95;94127.34;5019282;28;19917;-69
2021/06/01 12:23:48;;;;;;;;;;;;;;;25.90;25.56;94128.41;5019086;28;19917;-68
2021/06/01 12:26:31;;;;;;;;;;;;;;;25.50;25.82;94118.94;4997984;28;20280;-68
2021/06/01 12:31:47;;;;;;;;;;;;;;;25.07;26.73;94129.75;5018039;28;19917;-63
2021/06/01 12:34:20;;;;;;;;;;;;;;;24.77;26.88;94143.47;5018015;28;19917;-68
2021/06/01 12:42:30;;;;;;;;;;;;;;;24.63;28.37;94129.31;5018861;28;19917;-68
2021/06/01 12:44:57;;;;;;;;;;;;;;;24.24;29.26;94143.38;5005432;28;19920;-65
2021/06/01 13:05:28;;;;;;;;;;;;;;;23.59;31.19;94144.25;5018507;28;19917;-66
2021/06/01 13:08:07;;;;;;;;;;;;;;;24.52;29.19;94162.16;5014631;28;19913;-69
2021/06/01 13:21:40;;;;;;;;;;;;;;;24.01;29.03;94166.94;5018199;28;19947;-67
2021/06/01 13:38:11;;;;;;;;;;;;;;;23.90;31.39;94189.00;5017174;28;19917;-68
2021/06/01 13:46:29;;;;;;;;;;;;;;;24.68;29.08;94190.41;5017025;28;20217;-65
2021/06/01 13:49:09;;;;;;;;;;;;;;;24.17;29.39;94186.81;5017171;28;20238;-61
2021/06/01 13:56:57;;;;;;;;;;;;;;;23.78;30.81;94205.34;5016668;28;19924;-68
2021/06/01 13:59:36;;;;;;;;;;;;;;;23.87;30.61;94197.75;5017047;28;19922;-68
2021/06/01 14:15:31;;;;;;;;;;;;;;;24.47;29.60;94194.59;5010195;28;19929;-67
2021/06/01 15:32:13;;;;;;;;;;;;;;;22.97;32.54;94227.59;5014229;28;19948;-57
2021/06/01 16:12:51;;;;;;;;;;;;;;;23.77;32.47;94243.84;5022138;28;20434;-54
2021/06/01 16:23:24;;;;;;;;;;;;;;;26.25;26.76;94245.34;5014806;28;20317;-51
2021/06/01 16:31:44;;;;;;;;;;;;;;;26.69;26.96;94254.78;5014806;28;19920;-47
2021/06/01 17:07:04;;;;;;;;;;;;;;;27.20;26.57;94294.34;5018182;28;19921;-48
2021/06/01 17:12:18;;;;;;;;;;;;;;;26.76;26.70;94297.63;5017331;28;19924;-53
2021/06/01 17:14:45;;;;;;;;;;;;;;;27.23;26.11;94303.53;5017298;28;19921;-53
2021/06/01 17:17:12;;;;;;;;;;;;;;;26.57;26.69;94300.81;5016880;28;20321;-47
2021/06/01 17:35:39;;;;;;;;;;;;;;;25.83;27.93;94312.44;5016459;28;19917;-52
2021/06/01 17:38:06;;;;;;;;;;;;;;;26.35;27.49;94316.94;5017521;28;19917;-55
2021/06/01 17:40:35;;;;;;;;;;;;;;;25.57;28.90;94325.03;5010196;28;19913;-53
2021/06/01 17:43:08;;;;;;;;;;;;;;;25.52;28.55;94322.75;4997993;28;19917;-43
2021/06/01 17:45:36;;;;;;;;;;;;;;;25.18;28.88;94327.66;5018163;28;19917;-43
2021/06/01 17:48:08;;;;;;;;;;;;;;;24.58;29.74;94331.66;5017130;28;19917;-39
2021/06/01 17:50:35;;;;;;;;;;;;;;;25.38;28.85;94323.47;5016266;28;19924;-38
2021/06/01 17:53:05;;;;;;;;;;;;;;;24.49;30.23;94325.13;5017014;28;19931;-41
2021/06/01 17:55:32;;;;;;;;;;;;;;;24.58;30.03;94334.31;5010784;28;20324;-49
2021/06/01 17:57:59;;;;;;;;;;;;;;;24.54;29.50;94338.88;5016875;28;19913;-49
2021/06/01 18:00:27;;;;;;;;;;;;;;;24.70;29.96;94343.13;5017080;28;20225;-47
2021/06/01 18:02:53;;;;;;;;;;;;;;;24.05;31.22;94346.59;5018409;28;19917;-53
2021/06/01 18:05:22;;;;;;;;;;;;;;;24.17;31.10;94354.28;5015975;28;19920;-49
2021/06/01 18:08:08;;;;;;;;;;;;;;;24.83;30.10;94344.34;5013860;28;20315;-48
2021/06/01 18:14:01;;;;;;;;;;;;;;;25.46;29.03;94353.69;4997394;28;19925;-49
2021/06/01 19:25:02;;;;;;;;;;;;;;;23.59;32.76;94435.06;4996269;28;20319;-57
2021/06/01 19:49:56;;;;;;;;;;;;;;;24.45;31.88;94448.00;5015148;28;19928;-67
2021/06/01 19:52:24;;;;;;;;;;;;;;;23.78;32.81;94448.22;5014713;28;19913;-55
2021/06/01 19:54:51;;;;;;;;;;;;;;;25.01;30.98;94446.81;5015604;28;19981;-67
2021/06/01 19:57:18;;;;;;;;;;;;;;;24.97;31.10;94440.63;5015236;28;19917;-66
2021/06/01 19:59:45;;;;;;;;;;;;;;;25.22;30.27;94446.13;5015171;28;19924;-51
2021/06/01 20:02:17;;;;;;;;;;;;;;;26.23;28.80;94447.84;5015334;28;19924;-50
2021/06/01 20:04:44;;;;;;;;;;;;;;;26.22;28.48;94449.00;5014931;28;20343;-53
2021/06/01 20:07:11;;;;;;;;;;;;;;;26.64;27.79;94445.53;5015125;28;19921;-60
2021/06/01 20:09:38;;;;;;;;;;;;;;;25.52;28.96;94449.28;5015104;28;20293;-68